Time;durP1;ratioP1;P1;durP2;ratioP2;P2;SDS_P1;SDS_P2;PMS_P1;PMS_P2;Temp;Humidity;BMP_temperature;BMP_pressure;BME280_temperature;BME280_humidity;BME280_pressure;Samples;Min_cycle;Max_cycle;Signal;HPM_P1;HPM_P2
2021/07/20 00:00:21;;;;;;;;;13.50;12.25;;;;;27.29;41.05;101379.72;5101432;27;45400;-53
2021/07/20 00:02:52;;;;;;;;;12.50;12.50;;;;;27.24;41.09;101374.72;5095771;27;45422;-52
2021/07/20 00:05:23;;;;;;;;;10.75;10.00;;;;;27.21;41.11;101377.63;5102036;27;45371;-52
2021/07/20 00:07:54;;;;;;;;;15.00;13.50;;;;;27.19;41.28;101376.00;5101607;27;46237;-51
2021/07/20 00:10:34;;;;;;;;;12.50;12.00;;;;;27.16;41.28;101384.34;5101757;27;45463;-49
2021/07/20 00:13:01;;;;;;;;;15.75;15.75;;;;;27.13;41.21;101371.06;5101579;27;45279;-50
2021/07/20 00:15:27;;;;;;;;;18.50;15.25;;;;;27.11;40.77;101381.09;5101464;27;45735;-50
2021/07/20 00:17:55;;;;;;;;;12.25;12.25;;;;;27.07;40.90;101369.72;5101424;27;45396;-52
2021/07/20 00:20:22;;;;;;;;;12.50;12.00;;;;;27.04;40.58;101373.50;5087700;27;45489;-53
2021/07/20 00:22:48;;;;;;;;;17.00;13.50;;;;;27.04;41.43;101378.00;5101786;27;45174;-50
2021/07/20 00:25:15;;;;;;;;;14.50;12.75;;;;;27.01;40.76;101373.72;5095460;27;45444;-48
2021/07/20 00:27:40;;;;;;;;;13.50;13.50;;;;;26.98;40.73;101367.69;5090016;27;46313;-50
2021/07/20 00:30:08;;;;;;;;;13.25;12.25;;;;;26.96;41.45;101364.25;5097214;27;45376;-53
2021/07/20 00:32:34;;;;;;;;;12.00;12.00;;;;;26.93;41.05;101365.34;5101673;27;45409;-52
2021/07/20 00:34:59;;;;;;;;;14.25;12.75;;;;;26.89;40.81;101366.53;5086682;27;45502;-51
2021/07/20 00:37:24;;;;;;;;;11.00;10.75;;;;;26.86;41.79;101359.53;5087558;27;45205;-52
2021/07/20 00:39:50;;;;;;;;;14.25;12.00;;;;;26.84;40.82;101372.28;5081060;27;45444;-52
2021/07/20 00:42:15;;;;;;;;;12.25;11.00;;;;;26.78;41.37;101364.63;5090166;27;45417;-53
2021/07/20 00:44:40;;;;;;;;;14.25;14.25;;;;;26.79;41.16;101363.63;5085770;27;45163;-51
2021/07/20 00:47:06;;;;;;;;;15.75;15.50;;;;;26.77;41.36;101357.50;5081022;27;45321;-52
2021/07/20 00:49:31;;;;;;;;;15.00;14.75;;;;;26.73;40.98;101364.97;5096515;27;45314;-51
2021/07/20 00:51:57;;;;;;;;;13.00;12.50;;;;;26.71;41.20;101364.16;5092892;27;45509;-51
2021/07/20 00:54:22;;;;;;;;;16.00;14.00;;;;;26.68;41.61;101363.53;5081018;27;45462;-52
2021/07/20 00:56:49;;;;;;;;;13.50;12.00;;;;;26.65;41.85;101361.06;5080524;27;46258;-51
2021/07/20 00:59:15;;;;;;;;;14.75;13.25;;;;;26.60;41.67;101362.28;5062701;28;45885;-50
2021/07/20 01:01:40;;;;;;;;;10.50;10.25;;;;;26.59;41.86;101362.34;5079467;28;45485;-52
2021/07/20 01:04:06;;;;;;;;;15.00;13.00;;;;;26.56;41.38;101366.13;5080602;27;45404;-53
2021/07/20 01:06:32;;;;;;;;;14.25;13.00;;;;;26.54;41.79;101370.78;5080746;27;45300;-51
2021/07/20 01:09:01;;;;;;;;;12.50;12.50;;;;;26.45;41.69;101355.28;5079352;27;45597;-50
2021/07/20 01:11:29;;;;;;;;;16.00;14.50;;;;;26.47;41.68;101361.44;5079605;27;45275;-56
2021/07/20 01:13:56;;;;;;;;;14.25;13.75;;;;;26.46;41.48;101361.53;5097136;27;45164;-50
2021/07/20 01:16:23;;;;;;;;;11.50;11.50;;;;;26.42;42.00;101369.81;5090607;27;45354;-50
2021/07/20 01:18:50;;;;;;;;;14.25;13.75;;;;;26.40;41.66;101366.41;5080365;27;45427;-52
2021/07/20 01:21:15;;;;;;;;;12.00;11.25;;;;;26.34;41.76;101360.56;5091093;27;45161;-49
2021/07/20 01:23:47;;;;;;;;;13.00;12.75;;;;;26.35;41.75;101373.06;5081261;27;45583;-49
2021/07/20 01:26:13;;;;;;;;;11.75;11.75;;;;;26.33;41.82;101380.44;5091834;27;46243;-54
2021/07/20 01:28:40;;;;;;;;;14.00;13.50;;;;;26.30;41.78;101372.53;5083294;27;45492;-53
2021/07/20 01:31:09;;;;;;;;;12.00;12.00;;;;;26.27;42.26;101371.78;5100860;27;45261;-53
2021/07/20 01:33:38;;;;;;;;;13.25;11.75;;;;;26.24;41.80;101373.84;5083334;27;45462;-53
2021/07/20 01:36:06;;;;;;;;;12.75;11.00;;;;;26.21;42.44;101371.38;5080042;28;45438;-50
2021/07/20 01:38:33;;;;;;;;;13.75;13.25;;;;;26.17;41.88;101357.25;5075783;28;45299;-48
2021/07/20 01:41:06;;;;;;;;;14.50;12.50;;;;;26.17;41.85;101377.94;5080738;27;45341;-51
2021/07/20 01:43:32;;;;;;;;;15.00;13.50;;;;;26.13;42.03;101366.53;5093411;27;45181;-53
2021/07/20 01:45:59;;;;;;;;;13.25;13.25;;;;;26.10;42.53;101378.38;5080047;28;45269;-52
2021/07/20 01:48:28;;;;;;;;;17.25;14.00;;;;;26.07;42.13;101373.19;5079921;27;45404;-51
2021/07/20 01:50:55;;;;;;;;;14.00;14.00;;;;;26.03;41.90;101378.88;5080086;27;45249;-50
2021/07/20 01:53:21;;;;;;;;;14.50;12.25;;;;;26.01;42.70;101370.03;5080090;28;45259;-52
2021/07/20 01:55:47;;;;;;;;;16.00;16.00;;;;;25.97;42.45;101372.06;5079611;27;46361;-52
2021/07/20 01:58:14;;;;;;;;;13.50;13.00;;;;;25.91;42.57;101370.69;5079941;28;45398;-53
2021/07/20 02:00:40;;;;;;;;;13.50;13.50;;;;;25.91;42.12;101373.38;5079975;28;45447;-53
2021/07/20 02:08:28;;;;;;;;;17.50;14.75;;;;;25.82;42.13;101367.75;5080060;27;45483;-52
2021/07/20 02:11:00;;;;;;;;;16.25;14.00;;;;;25.79;42.12;101374.22;5079559;27;45372;-52
2021/07/20 02:13:29;;;;;;;;;14.50;14.50;;;;;25.76;42.62;101374.41;5079545;28;45611;-49
2021/07/20 02:15:55;;;;;;;;;14.00;13.25;;;;;25.74;42.51;101379.06;5079892;27;45279;-52
2021/07/20 02:18:26;;;;;;;;;18.00;15.75;;;;;25.70;42.26;101375.72;5079548;27;45246;-51
2021/07/20 02:20:51;;;;;;;;;16.00;14.50;;;;;25.68;42.40;101371.41;5079619;28;45335;-50
2021/07/20 02:23:18;;;;;;;;;20.00;15.50;;;;;25.64;42.80;101378.81;5080525;27;45433;-51
2021/07/20 02:25:44;;;;;;;;;18.00;17.25;;;;;25.61;42.47;101379.91;5083212;27;45963;-53
2021/07/20 02:28:10;;;;;;;;;17.00;16.00;;;;;25.58;42.68;101374.69;5082973;27;45239;-52
2021/07/20 02:30:37;;;;;;;;;16.50;14.50;;;;;25.57;42.32;101377.50;5101071;27;45426;-51
2021/07/20 02:33:03;;;;;;;;;17.00;14.75;;;;;25.55;42.58;101377.63;5091003;27;45489;-51
2021/07/20 02:35:29;;;;;;;;;19.00;16.00;;;;;25.52;43.09;101374.28;5064548;28;45991;-52
2021/07/20 02:37:56;;;;;;;;;15.25;13.25;;;;;25.49;42.79;101369.13;5095527;27;45406;-51
2021/07/20 02:40:23;;;;;;;;;18.00;14.75;;;;;25.48;42.95;101373.59;5085003;27;45339;-49
2021/07/20 02:42:52;;;;;;;;;15.25;14.25;;;;;25.46;42.53;101373.72;5088468;27;45448;-51
2021/07/20 02:45:18;;;;;;;;;17.50;15.50;;;;;25.44;43.01;101364.03;5082692;27;46174;-50
2021/07/20 02:47:45;;;;;;;;;15.25;13.50;;;;;25.41;42.66;101365.09;5081487;27;45189;-53
2021/07/20 02:50:16;;;;;;;;;20.25;17.25;;;;;25.38;43.29;101365.28;5095131;27;45440;-57
2021/07/20 02:52:45;;;;;;;;;14.25;13.50;;;;;25.38;43.15;101364.44;5096371;27;45224;-51
2021/07/20 02:55:13;;;;;;;;;16.00;15.75;;;;;25.35;42.77;101368.16;5082665;27;45395;-52
2021/07/20 02:57:40;;;;;;;;;15.00;14.50;;;;;25.34;42.89;101369.13;5064075;27;45458;-52
2021/07/20 03:00:08;;;;;;;;;14.00;14.00;;;;;25.31;43.19;101369.34;5082792;27;45321;-51
2021/07/20 03:02:36;;;;;;;;;18.00;16.25;;;;;25.30;42.88;101364.94;5064276;27;45490;-52
2021/07/20 03:05:08;;;;;;;;;18.75;15.50;;;;;25.26;43.42;101368.78;5082511;27;45410;-52
2021/07/20 03:07:36;;;;;;;;;14.50;12.75;;;;;25.24;42.91;101371.56;5082455;27;45415;-49
2021/07/20 03:10:04;;;;;;;;;16.50;14.50;;;;;25.24;43.34;101368.88;5082722;27;45340;-53
2021/07/20 03:12:32;;;;;;;;;14.75;14.75;;;;;25.22;43.27;101373.50;5082022;27;45411;-51
2021/07/20 03:14:58;;;;;;;;;20.25;16.50;;;;;25.20;43.56;101366.50;5082463;27;45154;-51
2021/07/20 03:17:27;;;;;;;;;15.00;14.25;;;;;25.19;43.42;101368.31;5082250;27;45294;-51
2021/07/20 03:19:53;;;;;;;;;15.25;14.75;;;;;25.17;43.61;101375.66;5082170;27;45280;-53
2021/07/20 03:22:24;;;;;;;;;16.00;16.00;;;;;25.16;43.02;101363.16;5082223;27;45303;-50
2021/07/20 03:24:51;;;;;;;;;17.25;14.75;;;;;25.11;43.69;101362.59;5080749;28;48250;-51
2021/07/20 03:27:17;;;;;;;;;15.25;13.75;;;;;25.11;43.70;101365.28;5067124;28;45390;-51
2021/07/20 03:29:43;;;;;;;;;18.50;18.25;;;;;25.10;43.80;101375.16;5092404;27;45354;-53
2021/07/20 03:32:16;;;;;;;;;16.50;15.25;;;;;25.07;43.93;101372.69;5084034;27;45346;-51
2021/07/20 03:34:44;;;;;;;;;14.75;14.75;;;;;25.05;43.95;101379.13;5101467;27;46206;-52
2021/07/20 03:37:10;;;;;;;;;16.75;16.00;;;;;25.04;43.53;101380.94;5088780;27;45251;-53
2021/07/20 03:39:39;;;;;;;;;17.25;15.00;;;;;24.99;43.68;101380.38;5070623;28;45302;-53
2021/07/20 03:42:07;;;;;;;;;16.25;16.25;;;;;24.99;44.07;101381.25;5067894;28;45471;-53
2021/07/20 03:44:33;;;;;;;;;16.25;15.00;;;;;24.97;43.89;101383.19;5081646;27;46678;-52
2021/07/20 03:46:58;;;;;;;;;18.25;16.25;;;;;24.92;43.76;101379.94;5081962;27;45378;-52
2021/07/20 03:49:26;;;;;;;;;18.25;16.75;;;;;24.91;44.02;101375.50;5081716;27;45317;-53
2021/07/20 03:51:51;;;;;;;;;16.75;16.75;;;;;24.83;43.99;101367.94;5080569;28;45433;-53
2021/07/20 03:54:18;;;;;;;;;16.50;16.00;;;;;24.89;43.96;101385.53;5080316;27;47001;-53
2021/07/20 03:56:44;;;;;;;;;13.25;12.25;;;;;24.87;43.72;101384.75;5081645;27;45549;-53
2021/07/20 03:59:12;;;;;;;;;20.00;17.25;;;;;24.85;43.87;101386.66;5081819;27;45289;-52
2021/07/20 04:01:39;;;;;;;;;22.75;19.75;;;;;24.80;44.12;101381.59;5081597;27;45426;-48
2021/07/20 04:04:07;;;;;;;;;17.25;16.75;;;;;24.80;44.17;101396.84;5081476;27;45411;-52
2021/07/20 04:06:36;;;;;;;;;19.00;19.00;;;;;24.75;44.32;101391.75;5081686;28;45304;-53
2021/07/20 04:09:01;;;;;;;;;19.00;17.50;;;;;24.74;44.20;101394.53;5081794;27;45518;-52
2021/07/20 04:11:27;;;;;;;;;20.50;18.00;;;;;24.73;44.51;101401.75;5081242;28;45473;-51
2021/07/20 04:13:54;;;;;;;;;22.75;20.50;;;;;24.71;44.29;101400.97;5097923;27;45378;-53
2021/07/20 04:16:23;;;;;;;;;20.25;17.75;;;;;24.69;44.47;101408.28;5092086;27;45282;-52
2021/07/20 04:18:49;;;;;;;;;25.50;20.25;;;;;24.58;44.33;101390.13;5063530;28;45297;-53
2021/07/20 04:21:17;;;;;;;;;19.75;17.50;;;;;24.64;44.25;101402.28;5081036;28;45548;-54
2021/07/20 04:23:44;;;;;;;;;19.50;17.50;;;;;24.63;44.21;101405.97;5081234;27;45395;-53
2021/07/20 04:26:12;;;;;;;;;19.75;17.50;;;;;24.59;44.13;101405.28;5081012;27;45389;-53
2021/07/20 04:28:38;;;;;;;;;20.25;20.00;;;;;24.58;44.34;101408.03;5082287;27;45253;-53
2021/07/20 04:31:05;;;;;;;;;19.25;18.00;;;;;24.55;44.27;101406.41;5101576;27;45387;-53
2021/07/20 04:33:33;;;;;;;;;26.00;19.00;;;;;24.52;44.28;101409.31;5084477;27;47039;-52
2021/07/20 04:35:59;;;;;;;;;17.00;17.00;;;;;24.49;44.54;101410.38;5081191;27;45278;-53
2021/07/20 04:38:27;;;;;;;;;21.25;19.25;;;;;24.45;44.20;101411.53;5094777;27;45260;-53
2021/07/20 04:40:53;;;;;;;;;21.25;16.75;;;;;24.44;44.64;101409.78;5063455;27;45312;-50
2021/07/20 04:43:19;;;;;;;;;18.75;17.75;;;;;24.41;44.40;101407.28;5094140;27;46099;-53
2021/07/20 04:45:46;;;;;;;;;16.50;15.25;;;;;24.39;44.65;101411.03;5080956;28;45193;-53
2021/07/20 04:48:14;;;;;;;;;19.25;18.00;;;;;24.37;44.47;101410.28;5081041;27;45337;-52
2021/07/20 04:50:40;;;;;;;;;17.25;16.75;;;;;24.33;44.60;101410.44;5080916;28;45297;-51
2021/07/20 04:53:12;;;;;;;;;22.00;18.50;;;;;24.29;44.25;101408.91;5080607;27;46319;-53
2021/07/20 04:55:41;;;;;;;;;20.75;19.50;;;;;24.29;44.45;101402.69;5062272;28;45337;-53
2021/07/20 04:58:07;;;;;;;;;19.00;17.25;;;;;24.26;44.43;101403.72;5080715;27;45250;-50
2021/07/20 05:00:34;;;;;;;;;21.75;17.00;;;;;24.24;44.51;101416.41;5080672;28;45646;-53
2021/07/20 05:03:02;;;;;;;;;20.25;18.25;;;;;24.23;44.59;101409.28;5080503;27;45582;-51
2021/07/20 05:05:31;;;;;;;;;21.50;19.75;;;;;24.22;44.55;101412.94;5080574;27;45311;-51
2021/07/20 05:07:57;;;;;;;;;21.00;18.75;;;;;24.21;44.39;101421.09;5088284;27;45341;-51
2021/07/20 05:10:24;;;;;;;;;20.50;18.25;;;;;24.19;44.54;101421.19;5086023;27;45379;-49
2021/07/20 05:12:49;;;;;;;;;26.50;24.00;;;;;24.16;44.36;101419.56;5093074;27;45260;-48
2021/07/20 05:15:17;;;;;;;;;23.75;20.25;;;;;24.17;44.50;101426.63;5080278;27;45457;-50
2021/07/20 05:17:44;;;;;;;;;22.50;19.50;;;;;24.14;44.36;101410.72;5079249;28;45264;-50
2021/07/20 05:20:11;;;;;;;;;23.50;18.50;;;;;24.14;44.43;101425.97;5080151;27;45500;-50
2021/07/20 05:22:38;;;;;;;;;18.00;17.50;;;;;24.11;44.63;101421.66;5080359;28;46207;-52
2021/07/20 05:25:05;;;;;;;;;19.00;19.00;;;;;24.10;44.67;101430.66;5062301;28;45528;-50
2021/07/20 05:28:00;;;;;;;;;27.25;24.00;;;;;24.10;44.45;101424.41;5080184;28;45318;-46
2021/07/20 05:30:25;;;;;;;;;22.25;19.75;;;;;24.08;44.33;101429.03;5075976;27;45487;-50
2021/07/20 05:32:51;;;;;;;;;25.25;22.75;;;;;24.05;44.58;101434.56;5089671;27;45370;-47
2021/07/20 05:35:19;;;;;;;;;27.25;21.50;;;;;24.04;44.54;101430.16;5080262;27;45315;-50
2021/07/20 05:37:47;;;;;;;;;27.50;24.25;;;;;24.04;44.70;101432.84;5091624;27;45271;-49
2021/07/20 05:40:15;;;;;;;;;23.50;20.00;;;;;24.04;44.34;101438.22;5081773;27;45518;-48
2021/07/20 05:42:42;;;;;;;;;23.50;22.25;;;;;24.03;44.78;101437.34;5092259;27;46593;-51
2021/07/20 05:45:09;;;;;;;;;21.00;21.00;;;;;24.03;44.53;101440.03;5082109;27;45327;-48
2021/07/20 05:47:37;;;;;;;;;26.00;24.25;;;;;24.02;44.74;101433.81;5088131;27;45367;-48
2021/07/20 05:50:08;;;;;;;;;30.25;26.50;;;;;24.01;44.71;101445.50;5079927;28;45233;-50
2021/07/20 05:52:35;;;;;;;;;26.75;23.75;;;;;24.00;44.47;101446.47;5079998;28;46232;-49
2021/07/20 05:55:04;;;;;;;;;25.50;24.75;;;;;23.99;44.61;101450.09;5080064;28;45229;-49
2021/07/20 05:57:30;;;;;;;;;30.00;25.75;;;;;23.94;44.69;101446.81;5079769;27;45395;-47
2021/07/20 05:59:56;;;;;;;;;30.25;25.50;;;;;23.97;44.46;101448.47;5083507;27;45241;-49
2021/07/20 06:02:23;;;;;;;;;27.00;25.75;;;;;23.94;44.26;101444.13;5083498;27;45257;-49
2021/07/20 06:04:50;;;;;;;;;29.50;26.75;;;;;23.96;44.59;101446.72;5083605;27;45308;-46
2021/07/20 06:07:16;;;;;;;;;30.00;28.25;;;;;23.98;44.67;101453.72;5083638;27;45292;-47
2021/07/20 06:09:45;;;;;;;;;28.50;26.75;;;;;23.98;44.28;101452.88;5091491;27;45178;-50
2021/07/20 06:12:14;;;;;;;;;29.00;26.50;;;;;23.98;44.39;101456.41;5087881;27;45388;-51
2021/07/20 06:14:39;;;;;;;;;30.25;27.50;;;;;24.00;44.46;101456.34;5083442;27;45378;-49
2021/07/20 06:17:06;;;;;;;;;29.75;28.50;;;;;23.99;44.45;101463.50;5083385;27;45217;-49
2021/07/20 06:19:33;;;;;;;;;28.25;25.25;;;;;23.99;44.18;101460.81;5083217;27;45175;-47
2021/07/20 06:22:02;;;;;;;;;32.75;29.25;;;;;24.01;44.35;101458.94;5083126;27;45271;-47
2021/07/20 06:24:29;;;;;;;;;30.75;28.25;;;;;24.02;44.42;101460.66;5081922;28;45789;-56
2021/07/20 06:26:56;;;;;;;;;33.00;30.50;;;;;24.03;44.30;101461.50;5086515;27;45255;-53
2021/07/20 06:29:23;;;;;;;;;30.25;29.50;;;;;24.05;44.25;101467.66;5102128;27;45453;-53
2021/07/20 06:31:49;;;;;;;;;32.25;30.25;;;;;24.05;44.29;101459.63;5101485;27;45274;-54
2021/07/20 06:34:15;;;;;;;;;30.50;28.75;;;;;24.05;44.26;101453.38;5083269;27;45261;-55
2021/07/20 06:36:45;;;;;;;;;30.25;29.00;;;;;24.06;44.22;101458.63;5085718;27;45442;-52
2021/07/20 06:39:12;;;;;;;;;33.75;30.50;;;;;24.08;44.03;101458.56;5093427;27;45493;-53
2021/07/20 06:41:38;;;;;;;;;33.50;30.50;;;;;24.05;43.94;101448.00;5085439;27;46395;-56
2021/07/20 06:44:06;;;;;;;;;37.75;30.75;;;;;24.06;44.10;101458.63;5092798;27;45333;-57
2021/07/20 06:46:32;;;;;;;;;34.50;29.50;;;;;24.06;44.20;101464.00;5084471;27;45335;-55
2021/07/20 06:49:00;;;;;;;;;33.00;29.75;;;;;23.96;43.99;101450.28;5093872;27;45295;-56
2021/07/20 06:51:29;;;;;;;;;36.25;32.25;;;;;24.05;44.16;101466.78;5084870;27;47027;-56
2021/07/20 06:53:55;;;;;;;;;30.00;28.50;;;;;24.06;44.08;101472.06;5103360;27;45557;-56
2021/07/20 06:56:33;;;;;;;;;34.75;28.00;;;;;24.07;44.08;101475.63;5084683;27;45410;-56
2021/07/20 06:59:00;;;;;;;;;33.75;30.25;;;;;24.06;44.00;101469.38;5103174;27;45295;-56
2021/07/20 07:01:28;;;;;;;;;30.75;28.50;;;;;24.06;44.18;101473.88;5081450;28;46283;-56
2021/07/20 07:04:31;;;;;;;;;35.50;32.25;;;;;24.09;43.84;101476.41;5096141;27;45166;-56
2021/07/20 07:06:58;;;;;;;;;35.25;30.75;;;;;24.08;43.87;101469.31;5094360;27;45229;-56
2021/07/20 07:09:28;;;;;;;;;39.00;31.25;;;;;24.10;44.18;101470.94;5080116;28;45272;-56
2021/07/20 07:11:54;;;;;;;;;41.00;31.75;;;;;24.11;43.73;101475.34;5094316;27;45488;-56
2021/07/20 07:14:21;;;;;;;;;36.75;31.75;;;;;24.13;43.94;101478.78;5102867;27;45342;-55
2021/07/20 07:16:48;;;;;;;;;40.25;32.25;;;;;24.14;43.70;101477.00;5081254;28;45273;-56
2021/07/20 07:19:16;;;;;;;;;32.00;30.75;;;;;24.16;44.21;101484.00;5101816;27;45455;-56
2021/07/20 07:21:42;;;;;;;;;35.50;30.00;;;;;24.20;43.72;101483.78;5102670;27;47364;-57
2021/07/20 07:24:12;;;;;;;;;35.50;31.50;;;;;24.21;43.94;101483.69;5102385;27;45307;-56
2021/07/20 07:26:39;;;;;;;;;36.00;31.50;;;;;24.24;43.59;101485.31;5102852;27;45302;-56
2021/07/20 07:29:08;;;;;;;;;39.50;31.50;;;;;24.27;43.70;101487.84;5102487;27;45334;-56
2021/07/20 07:31:33;;;;;;;;;37.50;31.75;;;;;24.30;43.55;101493.00;5102457;27;45336;-56
2021/07/20 07:33:59;;;;;;;;;35.75;30.75;;;;;24.33;43.96;101485.63;5097197;27;45334;-55
2021/07/20 07:36:27;;;;;;;;;34.00;29.25;;;;;24.36;43.93;101494.47;5088678;27;45314;-56
2021/07/20 07:38:55;;;;;;;;;32.75;30.75;;;;;24.37;43.85;101485.47;5091530;27;45394;-56
2021/07/20 07:41:23;;;;;;;;;32.75;29.25;;;;;24.41;43.47;101487.00;5077967;27;45273;-56
2021/07/20 07:43:50;;;;;;;;;33.50;29.50;;;;;24.43;43.70;101490.47;5102242;27;45354;-56
2021/07/20 07:46:18;;;;;;;;;35.75;31.00;;;;;24.45;43.68;101486.72;5102339;27;45241;-56
2021/07/20 07:48:44;;;;;;;;;35.75;30.25;;;;;24.49;43.86;101492.78;5102394;27;45395;-55
2021/07/20 07:51:10;;;;;;;;;35.25;32.00;;;;;24.52;43.44;101492.59;5102395;27;45334;-56
2021/07/20 07:53:37;;;;;;;;;34.50;30.75;;;;;24.53;42.95;101486.25;5102263;27;45410;-55
2021/07/20 07:56:04;;;;;;;;;36.75;30.25;;;;;24.57;43.51;101490.47;5102102;27;45350;-55
2021/07/20 07:58:30;;;;;;;;;38.75;32.00;;;;;24.60;43.05;101494.78;5102206;27;45479;-56
2021/07/20 08:01:00;;;;;;;;;29.25;28.50;;;;;24.63;43.26;101495.47;5102136;27;45898;-56
2021/07/20 08:03:28;;;;;;;;;32.00;30.25;;;;;24.68;43.17;101489.84;5102213;27;45260;-55
2021/07/20 08:05:54;;;;;;;;;37.50;32.75;;;;;24.69;43.20;101488.91;5102111;27;45284;-56
2021/07/20 08:08:20;;;;;;;;;37.00;30.50;;;;;24.76;43.12;101489.38;5102138;27;45267;-56
2021/07/20 08:10:47;;;;;;;;;32.75;27.00;;;;;24.80;43.08;101494.47;5101718;27;45330;-55
2021/07/20 08:13:14;;;;;;;;;32.25;30.00;;;;;24.74;43.43;101478.72;5083734;27;45355;-56
2021/07/20 08:15:39;;;;;;;;;36.50;30.00;;;;;24.87;42.81;101494.94;5101989;27;45353;-54
2021/07/20 08:18:06;;;;;;;;;32.75;29.75;;;;;24.92;43.22;101489.28;5101928;27;45542;-55
2021/07/20 08:20:32;;;;;;;;;36.75;29.50;;;;;24.93;43.17;101489.19;5101103;27;45371;-55
2021/07/20 08:22:57;;;;;;;;;32.00;29.50;;;;;24.99;42.79;101485.22;5101806;27;45275;-54
2021/07/20 08:25:31;;;;;;;;;34.50;27.25;;;;;25.02;42.88;101486.84;5101529;27;45318;-55
2021/07/20 08:28:13;;;;;;;;;32.25;29.00;;;;;25.05;43.12;101478.59;5083294;27;45314;-55
2021/07/20 08:30:43;;;;;;;;;33.25;29.25;;;;;25.08;42.69;101489.16;5101308;27;46334;-55
2021/07/20 08:33:16;;;;;;;;;33.00;28.25;;;;;25.13;43.02;101478.97;5080022;28;45242;-55
2021/07/20 08:35:44;;;;;;;;;32.50;30.00;;;;;25.17;42.88;101477.81;5098367;27;45318;-54
2021/07/20 08:38:12;;;;;;;;;30.50;29.50;;;;;25.19;43.05;101475.03;5101645;27;45413;-55
2021/07/20 08:40:50;;;;;;;;;35.00;29.25;;;;;25.26;42.88;101479.91;5101133;27;45412;-55
2021/07/20 08:43:40;;;;;;;;;31.25;27.25;;;;;25.31;42.43;101485.84;5101196;27;45343;-56
2021/07/20 08:46:47;;;;;;;;;28.00;27.00;;;;;25.36;43.06;101479.28;5101646;27;45326;-56
2021/07/20 08:49:31;;;;;;;;;30.50;27.25;;;;;25.42;43.00;101484.31;5079897;28;45404;-56
2021/07/20 08:52:35;;;;;;;;;33.75;29.50;;;;;25.46;42.87;101484.00;5098649;27;45387;-55
2021/07/20 08:55:14;;;;;;;;;30.25;28.75;;;;;25.49;43.04;101477.56;5082373;27;46356;-56
2021/07/20 08:57:50;;;;;;;;;37.00;29.50;;;;;25.56;42.68;101481.59;5101119;27;45170;-55
2021/07/20 09:00:19;;;;;;;;;34.00;27.00;;;;;25.63;42.74;101479.34;5101024;27;45301;-55
2021/07/20 09:03:05;;;;;;;;;25.00;24.00;;;;;25.70;42.49;101480.66;5100891;27;46445;-54
2021/07/20 09:05:41;;;;;;;;;28.25;23.75;;;;;25.73;42.66;101474.22;5079348;28;45555;-54
2021/07/20 09:08:20;;;;;;;;;26.50;22.75;;;;;25.80;42.93;101481.78;5098930;27;45445;-56
2021/07/20 09:11:13;;;;;;;;;24.75;20.00;;;;;25.85;42.67;101484.16;5100729;27;45239;-56
2021/07/20 09:13:47;;;;;;;;;30.75;29.00;;;;;25.89;43.25;101480.28;5100816;27;46339;-55
2021/07/20 09:16:31;;;;;;;;;27.50;26.25;;;;;25.95;42.53;101487.97;5100967;27;45236;-56
2021/07/20 09:19:06;;;;;;;;;30.00;25.25;;;;;26.02;42.69;101492.94;5101128;27;45366;-55
2021/07/20 09:21:37;;;;;;;;;27.25;24.50;;;;;26.06;42.96;101486.38;5100615;27;45414;-58
2021/07/20 09:24:28;;;;;;;;;31.00;26.50;;;;;26.14;43.21;101489.44;5100642;27;45485;-56
2021/07/20 09:27:06;;;;;;;;;25.50;22.25;;;;;26.18;43.16;101485.56;5100417;27;45239;-56
2021/07/20 09:29:36;;;;;;;;;22.00;21.00;;;;;26.24;43.13;101482.44;5100688;27;45359;-55
2021/07/20 09:32:29;;;;;;;;;29.25;24.75;;;;;26.32;43.18;101481.91;5100507;27;45224;-56
2021/07/20 09:35:02;;;;;;;;;26.50;22.50;;;;;26.39;43.08;101483.22;5100670;27;45376;-57
2021/07/20 09:37:38;;;;;;;;;25.50;21.25;;;;;26.44;43.02;101480.22;5100468;27;45249;-55
2021/07/20 09:40:17;;;;;;;;;27.50;25.00;;;;;26.53;43.05;101481.41;5082408;27;45347;-56
2021/07/20 09:43:03;;;;;;;;;26.75;23.50;;;;;26.59;42.55;101481.81;5100634;27;45369;-57
2021/07/20 09:45:37;;;;;;;;;25.75;21.50;;;;;26.67;42.48;101483.13;5100384;27;46141;-57
2021/07/20 09:48:24;;;;;;;;;24.50;23.00;;;;;26.73;42.59;101483.56;5100669;27;45303;-57
2021/07/20 09:51:22;;;;;;;;;21.75;19.50;;;;;26.81;43.23;101484.84;5100583;27;45441;-57
2021/07/20 09:53:59;;;;;;;;;22.00;21.50;;;;;26.88;43.43;101486.13;5078362;27;45479;-57
2021/07/20 09:56:57;;;;;;;;;23.25;21.00;;;;;26.95;42.97;101482.00;5100141;27;46085;-56
2021/07/20 09:59:44;;;;;;;;;21.00;20.00;;;;;27.05;43.15;101480.38;5076325;27;45330;-57
2021/07/20 10:02:33;;;;;;;;;19.75;18.50;;;;;27.15;42.50;101477.88;5100636;27;45322;-57
2021/07/20 10:05:05;;;;;;;;;21.00;20.50;;;;;27.21;42.50;101477.41;5070870;27;45301;-58
2021/07/20 10:07:47;;;;;;;;;21.75;20.50;;;;;27.29;42.81;101476.84;5100308;27;46215;-58
2021/07/20 10:10:28;;;;;;;;;21.75;18.75;;;;;27.38;42.21;101476.19;5100317;27;45359;-58
2021/07/20 10:13:09;;;;;;;;;23.25;19.75;;;;;27.48;42.65;101472.84;5100048;27;45470;-58
2021/07/20 10:15:45;;;;;;;;;18.50;18.25;;;;;27.54;42.49;101475.91;5100276;27;45364;-58
2021/07/20 10:18:19;;;;;;;;;21.50;18.50;;;;;27.63;42.35;101476.22;5100071;27;45372;-58
2021/07/20 10:20:55;;;;;;;;;20.25;17.75;;;;;27.72;42.64;101467.41;5081456;27;45460;-58
2021/07/20 10:23:30;;;;;;;;;18.50;17.50;;;;;27.81;42.28;101469.44;5100245;27;45332;-58
2021/07/20 10:26:16;;;;;;;;;26.50;24.25;;;;;27.90;42.08;101466.03;5081428;27;46017;-57
2021/07/20 10:29:04;;;;;;;;;20.00;16.50;;;;;27.97;42.28;101462.84;5080136;27;46461;-57
2021/07/20 10:31:38;;;;;;;;;24.75;20.75;;;;;28.08;42.23;101465.63;5099838;27;46268;-57
2021/07/20 10:34:14;;;;;;;;;19.50;16.75;;;;;28.17;42.24;101459.50;5099862;27;45291;-57
2021/07/20 10:36:53;;;;;;;;;20.25;17.50;;;;;28.31;42.27;101460.25;5081687;27;46198;-57
2021/07/20 10:39:26;;;;;;;;;18.00;16.00;;;;;28.42;41.37;101456.72;5099842;27;46713;-57
2021/07/20 10:42:07;;;;;;;;;18.50;16.75;;;;;28.53;41.60;101457.59;5099374;27;45366;-58
2021/07/20 10:44:55;;;;;;;;;18.25;17.00;;;;;28.67;41.59;101448.41;5101388;27;45348;-57
2021/07/20 10:47:26;;;;;;;;;16.25;16.00;;;;;28.86;41.29;101445.06;5103246;27;45201;-57
2021/07/20 10:50:05;;;;;;;;;15.00;15.00;;;;;29.08;41.72;101450.59;5103245;27;45314;-57
2021/07/20 10:52:41;;;;;;;;;18.75;17.00;;;;;29.32;41.62;101455.84;5103328;27;45268;-57
2021/07/20 10:55:30;;;;;;;;;17.50;16.50;;;;;29.68;41.47;101445.63;5085000;27;45360;-57
2021/07/20 10:58:17;;;;;;;;;17.00;16.00;;;;;30.09;41.55;101448.53;5103032;27;45356;-58
2021/07/20 11:01:03;;;;;;;;;22.25;18.75;;;;;30.61;41.01;101443.13;5103107;27;46276;-57
2021/07/20 11:03:41;;;;;;;;;20.75;18.00;;;;;31.09;41.15;101437.06;5102923;27;45419;-58
2021/07/20 11:06:10;;;;;;;;;25.75;22.50;;;;;31.61;41.04;101446.81;5103198;27;45236;-57
2021/07/20 11:08:43;;;;;;;;;19.50;18.25;;;;;32.13;40.57;101453.81;5102927;27;45358;-58
2021/07/20 11:11:13;;;;;;;;;22.75;17.50;;;;;32.69;40.76;101441.16;5102576;27;46226;-58
2021/07/20 11:13:40;;;;;;;;;18.00;15.75;;;;;33.22;40.39;101439.59;5102869;27;45481;-57
2021/07/20 11:16:16;;;;;;;;;17.25;15.25;;;;;33.81;40.22;101452.78;5103008;27;45277;-57
2021/07/20 11:18:43;;;;;;;;;20.25;18.50;;;;;34.34;39.63;101449.13;5084592;27;45485;-57
2021/07/20 11:21:13;;;;;;;;;18.75;18.25;;;;;34.86;39.38;101441.91;5102400;27;45335;-57
2021/07/20 11:23:41;;;;;;;;;19.50;18.00;;;;;35.34;39.25;101447.66;5084282;27;45322;-57
2021/07/20 11:26:08;;;;;;;;;21.00;18.75;;;;;35.81;38.91;101451.63;5102586;27;45173;-57
2021/07/20 11:28:35;;;;;;;;;22.00;20.25;;;;;36.25;38.85;101445.81;5102393;27;45429;-57